DLR94 KATL-KJFK
Flight info
| Callsign | DLR94 |
|---|---|
| Flight time | 1h 43m |
| Altitude | 37000 |
| Route | PHIIL3 HRTWL Q64 SAWED Q108 SIE CAMRN5 |
| Aircraft | B738/M-SDE2E3FGHIRWXY/LB1 |
Departure
| Time | 2026-05-08 01:53 |
|---|---|
| Airport | Hartsfield Jackson Atlanta International Airport (KATL) |
Arrival
| Time | 2026-05-08 03:36 |
|---|---|
| Airport | John F. Kennedy International Airport (KJFK) |
| Time | Latitude | Longitude | Altitude | Speed | Heading |
|---|---|---|---|---|---|
| 2026-05-08 01:37 | 33.63841 | -84.44195 | 1022 ft | 0 kts | 269° |
| 2026-05-08 01:42 | 33.63841 | -84.44194 | 1022 ft | 0 kts | 269° |
| 2026-05-08 01:42 | 33.63841 | -84.44193 | 1022 ft | 1 kts | 269° |
| 2026-05-08 01:42 | 33.63841 | -84.44176 | 1022 ft | 2 kts | 269° |
| 2026-05-08 01:43 | 33.63841 | -84.44164 | 1021 ft | 1 kts | 269° |
| 2026-05-08 01:43 | 33.63844 | -84.44146 | 1021 ft | 2 kts | 245° |
| 2026-05-08 01:43 | 33.63851 | -84.44131 | 1021 ft | 2 kts | 227° |
| 2026-05-08 01:43 | 33.63863 | -84.44119 | 1020 ft | 2 kts | 206° |
| 2026-05-08 01:44 | 33.63878 | -84.44113 | 1020 ft | 1 kts | 186° |
| 2026-05-08 01:44 | 33.63885 | -84.44113 | 1020 ft | 1 kts | 178° |
| 2026-05-08 01:44 | 33.63887 | -84.44113 | 1020 ft | 0 kts | 180° |
| 2026-05-08 01:46 | 33.63881 | -84.44113 | 1020 ft | 3 kts | 181° |
| 2026-05-08 01:46 | 33.63838 | -84.44115 | 1020 ft | 6 kts | 181° |
| 2026-05-08 01:46 | 33.63788 | -84.44115 | 1020 ft | 8 kts | 181° |
| 2026-05-08 01:47 | 33.63717 | -84.44115 | 1020 ft | 10 kts | 180° |
| 2026-05-08 01:47 | 33.63666 | -84.44070 | 1019 ft | 9 kts | 104° |
| 2026-05-08 01:47 | 33.63663 | -84.43986 | 1018 ft | 10 kts | 90° |
| 2026-05-08 01:48 | 33.63663 | -84.43735 | 1015 ft | 23 kts | 90° |
| 2026-05-08 01:48 | 33.63663 | -84.43529 | 1012 ft | 26 kts | 90° |
| 2026-05-08 01:48 | 33.63663 | -84.43314 | 1011 ft | 25 kts | 90° |
| 2026-05-08 01:48 | 33.63664 | -84.43104 | 1008 ft | 25 kts | 90° |
| 2026-05-08 01:49 | 33.63664 | -84.42899 | 1006 ft | 24 kts | 90° |
| 2026-05-08 01:49 | 33.63655 | -84.42691 | 1002 ft | 25 kts | 91° |
| 2026-05-08 01:49 | 33.63655 | -84.42480 | 998 ft | 25 kts | 90° |
| 2026-05-08 01:49 | 33.63656 | -84.42258 | 990 ft | 27 kts | 90° |
| 2026-05-08 01:50 | 33.63654 | -84.42014 | 980 ft | 30 kts | 90° |
| 2026-05-08 01:50 | 33.63654 | -84.41751 | 968 ft | 32 kts | 90° |
| 2026-05-08 01:50 | 33.63655 | -84.41489 | 963 ft | 30 kts | 90° |
| 2026-05-08 01:50 | 33.63654 | -84.41244 | 963 ft | 28 kts | 90° |
| 2026-05-08 01:51 | 33.63654 | -84.41036 | 961 ft | 19 kts | 90° |
| 2026-05-08 01:51 | 33.63638 | -84.40917 | 957 ft | 13 kts | 142° |
| 2026-05-08 01:51 | 33.63575 | -84.40909 | 956 ft | 4 kts | 180° |
| 2026-05-08 01:51 | 33.63534 | -84.40909 | 956 ft | 9 kts | 180° |
| 2026-05-08 01:52 | 33.63474 | -84.40945 | 958 ft | 10 kts | 259° |
| 2026-05-08 01:52 | 33.63472 | -84.41164 | 963 ft | 55 kts | 270° |
| 2026-05-08 01:52 | 33.63471 | -84.41891 | 977 ft | 115 kts | 271° |
| 2026-05-08 01:52 | 33.63473 | -84.43043 | 1011 ft | 161 kts | 272° |
| 2026-05-08 01:53 | 33.63484 | -84.44414 | 1518 ft | 162 kts | 274° |
| 2026-05-08 01:53 | 33.63479 | -84.45753 | 2150 ft | 164 kts | 271° |
| 2026-05-08 01:53 | 33.63420 | -84.47152 | 2616 ft | 175 kts | 268° |
| 2026-05-08 01:53 | 33.63043 | -84.48594 | 2985 ft | 191 kts | 247° |
| 2026-05-08 01:54 | 33.62355 | -84.50037 | 3295 ft | 207 kts | 246° |
| 2026-05-08 01:54 | 33.61673 | -84.51583 | 3688 ft | 217 kts | 248° |
| 2026-05-08 01:54 | 33.60982 | -84.53266 | 4059 ft | 232 kts | 249° |
| 2026-05-08 01:54 | 33.60248 | -84.55061 | 4553 ft | 243 kts | 248° |
| 2026-05-08 01:55 | 33.59339 | -84.56812 | 5041 ft | 257 kts | 233° |
| 2026-05-08 01:55 | 33.57887 | -84.58067 | 5728 ft | 269 kts | 207° |
| 2026-05-08 01:55 | 33.56017 | -84.58487 | 6505 ft | 277 kts | 188° |
| 2026-05-08 01:55 | 33.54078 | -84.58485 | 7148 ft | 282 kts | 186° |
| 2026-05-08 01:56 | 33.52122 | -84.58453 | 7800 ft | 287 kts | 186° |
| 2026-05-08 01:56 | 33.50118 | -84.58144 | 8507 ft | 298 kts | 172° |
| 2026-05-08 01:56 | 33.48224 | -84.57011 | 9173 ft | 316 kts | 148° |
| 2026-05-08 01:56 | 33.46743 | -84.55007 | 9778 ft | 334 kts | 124° |
| 2026-05-08 01:57 | 33.45842 | -84.52417 | 10407 ft | 344 kts | 107° |
| 2026-05-08 01:57 | 33.45478 | -84.49524 | 10689 ft | 363 kts | 93° |
| 2026-05-08 01:57 | 33.45435 | -84.46401 | 11001 ft | 381 kts | 89° |
| 2026-05-08 01:57 | 33.45491 | -84.43183 | 11324 ft | 397 kts | 88° |
| 2026-05-08 01:58 | 33.45558 | -84.39816 | 11647 ft | 413 kts | 88° |
| 2026-05-08 01:58 | 33.45604 | -84.36387 | 11906 ft | 429 kts | 88° |
| 2026-05-08 01:58 | 33.45844 | -84.32757 | 12407 ft | 436 kts | 80° |
| 2026-05-08 01:58 | 33.46462 | -84.29156 | 12976 ft | 441 kts | 72° |
| 2026-05-08 01:59 | 33.47303 | -84.25684 | 13602 ft | 443 kts | 69° |
| 2026-05-08 01:59 | 33.48270 | -84.22134 | 14196 ft | 449 kts | 68° |
| 2026-05-08 01:59 | 33.49253 | -84.18613 | 14787 ft | 454 kts | 68° |
| 2026-05-08 01:59 | 33.50251 | -84.14981 | 15380 ft | 460 kts | 69° |
| 2026-05-08 02:00 | 33.51226 | -84.11311 | 15932 ft | 467 kts | 69° |
| 2026-05-08 02:00 | 33.52194 | -84.07581 | 16506 ft | 472 kts | 70° |
| 2026-05-08 02:00 | 33.53159 | -84.03803 | 17062 ft | 477 kts | 70° |
| 2026-05-08 02:00 | 33.54120 | -84.00004 | 17568 ft | 483 kts | 70° |
| 2026-05-08 02:01 | 33.55098 | -83.96120 | 18120 ft | 488 kts | 70° |
| 2026-05-08 02:01 | 33.56065 | -83.92251 | 18669 ft | 492 kts | 70° |
| 2026-05-08 02:01 | 33.57044 | -83.88331 | 19211 ft | 496 kts | 70° |
| 2026-05-08 02:01 | 33.58056 | -83.84361 | 19728 ft | 500 kts | 69° |
| 2026-05-08 02:02 | 33.59211 | -83.80450 | 20227 ft | 503 kts | 65° |
| 2026-05-08 02:02 | 33.60553 | -83.76557 | 20809 ft | 504 kts | 62° |
| 2026-05-08 02:02 | 33.61986 | -83.72742 | 21175 ft | 511 kts | 60° |
| 2026-05-08 02:02 | 33.63521 | -83.68844 | 21740 ft | 512 kts | 59° |
| 2026-05-08 02:03 | 33.65016 | -83.64990 | 22184 ft | 518 kts | 62° |
| 2026-05-08 02:03 | 33.66291 | -83.60918 | 22685 ft | 524 kts | 68° |
| 2026-05-08 02:03 | 33.67305 | -83.56705 | 23147 ft | 530 kts | 72° |
| 2026-05-08 02:03 | 33.68153 | -83.52425 | 23505 ft | 537 kts | 75° |
| 2026-05-08 02:04 | 33.68933 | -83.47994 | 24069 ft | 538 kts | 76° |
| 2026-05-08 02:04 | 33.69668 | -83.43626 | 24362 ft | 545 kts | 76° |
| 2026-05-08 02:04 | 33.70414 | -83.39166 | 24846 ft | 548 kts | 76° |
| 2026-05-08 02:04 | 33.71176 | -83.34682 | 25288 ft | 551 kts | 76° |
| 2026-05-08 02:05 | 33.71968 | -83.30124 | 25605 ft | 556 kts | 76° |
| 2026-05-08 02:05 | 33.72693 | -83.26031 | 26032 ft | 557 kts | 76° |
| 2026-05-08 02:05 | 33.73616 | -83.21128 | 26603 ft | 556 kts | 73° |
| 2026-05-08 02:05 | 33.74667 | -83.16679 | 27160 ft | 553 kts | 68° |
| 2026-05-08 02:06 | 33.76093 | -83.12404 | 27647 ft | 549 kts | 60° |
| 2026-05-08 02:06 | 33.77786 | -83.08386 | 28155 ft | 545 kts | 56° |
| 2026-05-08 02:06 | 33.79683 | -83.04433 | 28625 ft | 543 kts | 53° |
| 2026-05-08 02:06 | 33.81657 | -83.00584 | 29111 ft | 541 kts | 52° |
| 2026-05-08 02:07 | 33.83662 | -82.96808 | 29582 ft | 541 kts | 51° |
| 2026-05-08 02:07 | 33.85711 | -82.92989 | 29989 ft | 542 kts | 50° |
| 2026-05-08 02:07 | 33.87607 | -82.89454 | 30436 ft | 542 kts | 51° |
| 2026-05-08 02:07 | 33.89770 | -82.85376 | 30980 ft | 540 kts | 51° |
| 2026-05-08 02:08 | 33.91754 | -82.81579 | 31541 ft | 538 kts | 51° |
| 2026-05-08 02:08 | 33.93756 | -82.77718 | 31711 ft | 544 kts | 51° |
| 2026-05-08 02:08 | 33.95741 | -82.73864 | 32339 ft | 539 kts | 51° |
| 2026-05-08 02:08 | 33.97663 | -82.70098 | 32851 ft | 536 kts | 51° |
| 2026-05-08 02:09 | 33.99636 | -82.66232 | 33119 ft | 539 kts | 51° |
| 2026-05-08 02:09 | 34.01585 | -82.62396 | 33543 ft | 538 kts | 51° |
| 2026-05-08 02:09 | 34.03520 | -82.58568 | 33943 ft | 538 kts | 51° |
| 2026-05-08 02:09 | 34.05478 | -82.54690 | 34177 ft | 541 kts | 51° |
| 2026-05-08 02:10 | 34.07413 | -82.50844 | 34758 ft | 536 kts | 51° |
| 2026-05-08 02:10 | 34.09341 | -82.47007 | 35057 ft | 537 kts | 51° |
| 2026-05-08 02:10 | 34.11277 | -82.43151 | 35319 ft | 539 kts | 50° |
| 2026-05-08 02:10 | 34.13216 | -82.39291 | 35716 ft | 538 kts | 51° |
| 2026-05-08 02:11 | 34.15142 | -82.35460 | 36001 ft | 539 kts | 51° |
| 2026-05-08 02:11 | 34.17068 | -82.31615 | 36327 ft | 537 kts | 51° |
| 2026-05-08 02:11 | 34.19015 | -82.27734 | 36617 ft | 537 kts | 51° |
| 2026-05-08 02:11 | 34.20951 | -82.23883 | 36876 ft | 537 kts | 50° |
| 2026-05-08 02:12 | 34.24825 | -82.16155 | 36955 ft | 539 kts | 50° |
| 2026-05-08 02:12 | 34.28668 | -82.08435 | 36956 ft | 535 kts | 50° |
| 2026-05-08 02:13 | 34.32530 | -82.00678 | 36959 ft | 538 kts | 50° |
| 2026-05-08 02:13 | 34.36415 | -81.92981 | 36950 ft | 538 kts | 51° |
| 2026-05-08 02:14 | 34.40305 | -81.85197 | 36955 ft | 540 kts | 50° |
| 2026-05-08 02:14 | 34.44151 | -81.77496 | 36957 ft | 537 kts | 50° |
| 2026-05-08 02:15 | 34.47995 | -81.69824 | 36954 ft | 536 kts | 50° |
| 2026-05-08 02:15 | 34.51899 | -81.62071 | 36976 ft | 539 kts | 49° |
| 2026-05-08 02:16 | 34.55757 | -81.54351 | 36977 ft | 539 kts | 50° |
| 2026-05-08 02:16 | 34.59626 | -81.46616 | 36974 ft | 535 kts | 50° |
| 2026-05-08 02:17 | 34.63438 | -81.38864 | 36973 ft | 537 kts | 50° |
| 2026-05-08 02:17 | 34.67262 | -81.31030 | 36971 ft | 540 kts | 51° |
| 2026-05-08 02:18 | 34.71106 | -81.23212 | 36978 ft | 538 kts | 51° |
| 2026-05-08 02:18 | 34.74905 | -81.15485 | 36976 ft | 534 kts | 50° |
| 2026-05-08 02:19 | 34.78732 | -81.07687 | 36980 ft | 539 kts | 51° |
| 2026-05-08 02:19 | 34.82256 | -80.99609 | 36970 ft | 545 kts | 58° |
| 2026-05-08 02:20 | 34.85337 | -80.91170 | 36972 ft | 548 kts | 60° |
| 2026-05-08 02:20 | 34.88334 | -80.82640 | 36966 ft | 546 kts | 60° |
| 2026-05-08 02:21 | 34.91352 | -80.74181 | 36972 ft | 547 kts | 59° |
| 2026-05-08 02:21 | 34.94454 | -80.65755 | 36969 ft | 545 kts | 58° |
| 2026-05-08 02:22 | 34.97537 | -80.57297 | 36969 ft | 546 kts | 59° |
| 2026-05-08 02:22 | 35.00602 | -80.48901 | 36970 ft | 548 kts | 59° |
| 2026-05-08 02:23 | 35.03679 | -80.40417 | 36969 ft | 547 kts | 58° |
| 2026-05-08 02:23 | 35.06718 | -80.31969 | 36961 ft | 545 kts | 61° |
| 2026-05-08 02:24 | 35.09744 | -80.23455 | 36973 ft | 547 kts | 59° |
| 2026-05-08 02:24 | 35.12764 | -80.14967 | 36969 ft | 547 kts | 59° |
| 2026-05-08 02:25 | 35.15829 | -80.06465 | 36964 ft | 547 kts | 60° |
| 2026-05-08 02:25 | 35.18902 | -79.97973 | 36974 ft | 549 kts | 59° |
| 2026-05-08 02:26 | 35.21995 | -79.89439 | 36964 ft | 547 kts | 59° |
| 2026-05-08 02:26 | 35.25055 | -79.80986 | 36966 ft | 545 kts | 60° |
| 2026-05-08 02:27 | 35.28088 | -79.72433 | 36967 ft | 552 kts | 60° |
| 2026-05-08 02:27 | 35.31107 | -79.63847 | 36970 ft | 547 kts | 59° |
| 2026-05-08 02:28 | 35.34118 | -79.55370 | 36976 ft | 547 kts | 60° |
| 2026-05-08 02:28 | 35.37191 | -79.46786 | 36974 ft | 551 kts | 59° |
| 2026-05-08 02:29 | 35.40232 | -79.38213 | 36972 ft | 548 kts | 60° |
| 2026-05-08 02:29 | 35.43202 | -79.29623 | 36975 ft | 552 kts | 60° |
| 2026-05-08 02:30 | 35.46210 | -79.20987 | 36971 ft | 551 kts | 60° |
| 2026-05-08 02:30 | 35.49232 | -79.12407 | 36975 ft | 550 kts | 59° |
| 2026-05-08 02:31 | 35.52256 | -79.03784 | 36972 ft | 551 kts | 61° |
| 2026-05-08 02:31 | 35.55265 | -78.95154 | 36973 ft | 552 kts | 60° |
| 2026-05-08 02:32 | 35.58304 | -78.86464 | 36969 ft | 554 kts | 60° |
| 2026-05-08 02:32 | 35.61294 | -78.77809 | 36974 ft | 550 kts | 60° |
| 2026-05-08 02:33 | 35.64290 | -78.69087 | 36975 ft | 555 kts | 60° |
| 2026-05-08 02:33 | 35.67291 | -78.60412 | 36965 ft | 555 kts | 61° |
| 2026-05-08 02:34 | 35.70200 | -78.51678 | 36971 ft | 552 kts | 61° |
| 2026-05-08 02:34 | 35.73207 | -78.42999 | 36973 ft | 555 kts | 59° |
| 2026-05-08 02:35 | 35.76238 | -78.34267 | 36963 ft | 553 kts | 62° |
| 2026-05-08 02:35 | 35.79165 | -78.25537 | 36968 ft | 556 kts | 62° |
| 2026-05-08 02:36 | 35.82087 | -78.16714 | 36972 ft | 558 kts | 60° |
| 2026-05-08 02:36 | 35.85083 | -78.07926 | 36972 ft | 554 kts | 60° |
| 2026-05-08 02:37 | 35.88084 | -77.99161 | 36966 ft | 557 kts | 61° |
| 2026-05-08 02:37 | 35.91039 | -77.90385 | 36967 ft | 560 kts | 61° |
| 2026-05-08 02:38 | 35.94018 | -77.81531 | 36966 ft | 555 kts | 61° |
| 2026-05-08 02:38 | 35.97105 | -77.72842 | 36961 ft | 547 kts | 53° |
| 2026-05-08 02:39 | 36.01278 | -77.65195 | 36965 ft | 532 kts | 39° |
| 2026-05-08 02:39 | 36.06127 | -77.58491 | 36958 ft | 523 kts | 34° |
| 2026-05-08 02:40 | 36.10351 | -77.53084 | 36959 ft | 528 kts | 34° |
| 2026-05-08 02:40 | 36.16210 | -77.45431 | 36960 ft | 522 kts | 35° |
| 2026-05-08 02:41 | 36.21175 | -77.38802 | 36959 ft | 528 kts | 35° |
| 2026-05-08 02:41 | 36.26167 | -77.32083 | 36952 ft | 526 kts | 37° |
| 2026-05-08 02:42 | 36.31113 | -77.25410 | 36961 ft | 525 kts | 34° |
| 2026-05-08 02:42 | 36.36302 | -77.19156 | 36958 ft | 518 kts | 30° |
| 2026-05-08 02:43 | 36.41674 | -77.13216 | 36960 ft | 516 kts | 28° |
| 2026-05-08 02:43 | 36.47020 | -77.07385 | 36959 ft | 513 kts | 29° |
| 2026-05-08 02:44 | 36.52379 | -77.01482 | 36954 ft | 516 kts | 29° |
| 2026-05-08 02:44 | 36.57685 | -76.95555 | 36960 ft | 518 kts | 30° |
| 2026-05-08 02:45 | 36.62991 | -76.89569 | 36956 ft | 514 kts | 30° |
| 2026-05-08 02:45 | 36.68306 | -76.83557 | 36964 ft | 516 kts | 30° |
| 2026-05-08 02:46 | 36.73605 | -76.77552 | 36954 ft | 514 kts | 29° |
| 2026-05-08 02:46 | 36.78902 | -76.71549 | 36952 ft | 516 kts | 29° |
| 2026-05-08 02:47 | 36.84219 | -76.65520 | 36951 ft | 519 kts | 29° |
| 2026-05-08 02:47 | 36.89510 | -76.59489 | 36952 ft | 515 kts | 29° |
| 2026-05-08 02:48 | 36.94843 | -76.53411 | 36952 ft | 518 kts | 30° |
| 2026-05-08 02:48 | 37.00128 | -76.47365 | 36952 ft | 516 kts | 30° |
| 2026-05-08 02:49 | 37.05422 | -76.41274 | 36948 ft | 518 kts | 30° |
| 2026-05-08 02:49 | 37.10681 | -76.35168 | 36945 ft | 514 kts | 30° |
| 2026-05-08 02:50 | 37.16001 | -76.29051 | 36944 ft | 518 kts | 30° |
| 2026-05-08 02:50 | 37.21284 | -76.23003 | 36950 ft | 517 kts | 31° |
| 2026-05-08 02:51 | 37.26613 | -76.16882 | 36943 ft | 519 kts | 31° |
| 2026-05-08 02:51 | 37.31892 | -76.10783 | 36940 ft | 516 kts | 31° |
| 2026-05-08 02:52 | 37.37146 | -76.04691 | 36947 ft | 514 kts | 31° |
| 2026-05-08 02:52 | 37.42417 | -75.98584 | 36953 ft | 517 kts | 31° |
| 2026-05-08 02:53 | 37.47682 | -75.92472 | 36936 ft | 514 kts | 31° |
| 2026-05-08 02:53 | 37.53031 | -75.86513 | 36936 ft | 509 kts | 26° |
| 2026-05-08 02:54 | 37.58734 | -75.81531 | 36939 ft | 496 kts | 19° |
| 2026-05-08 02:54 | 37.64653 | -75.77096 | 36946 ft | 491 kts | 17° |
| 2026-05-08 02:55 | 37.73475 | -75.70665 | 36939 ft | 490 kts | 17° |
| 2026-05-08 02:56 | 37.79351 | -75.66317 | 36941 ft | 494 kts | 18° |
| 2026-05-08 02:56 | 37.85210 | -75.61897 | 36932 ft | 486 kts | 19° |
| 2026-05-08 02:57 | 37.90899 | -75.57159 | 36939 ft | 494 kts | 22° |
| 2026-05-08 02:57 | 37.96572 | -75.52129 | 36942 ft | 502 kts | 23° |
| 2026-05-08 02:58 | 38.02235 | -75.47078 | 36943 ft | 498 kts | 23° |
| 2026-05-08 02:58 | 38.07918 | -75.42082 | 36937 ft | 497 kts | 21° |
| 2026-05-08 02:59 | 38.13711 | -75.37304 | 36932 ft | 497 kts | 20° |
| 2026-05-08 02:59 | 38.19471 | -75.32639 | 36932 ft | 491 kts | 21° |
| 2026-05-08 03:00 | 38.25458 | -75.28648 | 36929 ft | 475 kts | 8° |
| 2026-05-08 03:00 | 38.28554 | -75.27384 | 36931 ft | 462 kts | 1° |
| 2026-05-08 03:00 | 38.31659 | -75.26492 | 36933 ft | 453 kts | 357° |
| 2026-05-08 03:01 | 38.37826 | -75.25185 | 36929 ft | 449 kts | 354° |
| 2026-05-08 03:01 | 38.44022 | -75.24024 | 36926 ft | 452 kts | 354° |
| 2026-05-08 03:02 | 38.50256 | -75.22798 | 36928 ft | 453 kts | 355° |
| 2026-05-08 03:02 | 38.56438 | -75.21532 | 36918 ft | 452 kts | 356° |
| 2026-05-08 03:03 | 38.62059 | -75.20373 | 36921 ft | 456 kts | 355° |
| 2026-05-08 03:03 | 38.68319 | -75.18832 | 36855 ft | 463 kts | 3° |
| 2026-05-08 03:03 | 38.71370 | -75.17361 | 36533 ft | 476 kts | 15° |
| 2026-05-08 03:04 | 38.74218 | -75.15183 | 36103 ft | 485 kts | 22° |
| 2026-05-08 03:04 | 38.76955 | -75.12672 | 35704 ft | 486 kts | 26° |
| 2026-05-08 03:04 | 38.79629 | -75.10035 | 35194 ft | 492 kts | 27° |
| 2026-05-08 03:04 | 38.82323 | -75.07311 | 34665 ft | 496 kts | 27° |
| 2026-05-08 03:05 | 38.85012 | -75.04576 | 34137 ft | 494 kts | 27° |
| 2026-05-08 03:05 | 38.87712 | -75.01827 | 33610 ft | 492 kts | 26° |
| 2026-05-08 03:05 | 38.90384 | -74.99122 | 33129 ft | 490 kts | 26° |
| 2026-05-08 03:05 | 38.93043 | -74.96449 | 32629 ft | 489 kts | 27° |
| 2026-05-08 03:06 | 38.95710 | -74.93787 | 32107 ft | 488 kts | 26° |
| 2026-05-08 03:06 | 38.98405 | -74.91112 | 31564 ft | 488 kts | 27° |
| 2026-05-08 03:06 | 39.01102 | -74.88442 | 31037 ft | 487 kts | 27° |
| 2026-05-08 03:06 | 39.03757 | -74.85812 | 30482 ft | 487 kts | 28° |
| 2026-05-08 03:07 | 39.06454 | -74.83134 | 29937 ft | 487 kts | 28° |
| 2026-05-08 03:07 | 39.09116 | -74.80486 | 29341 ft | 485 kts | 28° |
| 2026-05-08 03:07 | 39.11747 | -74.77826 | 28790 ft | 479 kts | 30° |
| 2026-05-08 03:07 | 39.14299 | -74.75136 | 28278 ft | 471 kts | 31° |
| 2026-05-08 03:08 | 39.16772 | -74.72450 | 27770 ft | 463 kts | 32° |
| 2026-05-08 03:08 | 39.19186 | -74.69795 | 27269 ft | 455 kts | 32° |
| 2026-05-08 03:08 | 39.21549 | -74.67194 | 26755 ft | 446 kts | 32° |
| 2026-05-08 03:08 | 39.23885 | -74.64628 | 26268 ft | 438 kts | 32° |
| 2026-05-08 03:09 | 39.26198 | -74.62096 | 25812 ft | 434 kts | 31° |
| 2026-05-08 03:09 | 39.27745 | -74.60410 | 25456 ft | 434 kts | 32° |
| 2026-05-08 03:09 | 39.30047 | -74.57905 | 24976 ft | 433 kts | 32° |
| 2026-05-08 03:09 | 39.33086 | -74.54601 | 24360 ft | 430 kts | 32° |
| 2026-05-08 03:10 | 39.35343 | -74.52144 | 23884 ft | 429 kts | 32° |
| 2026-05-08 03:10 | 39.37625 | -74.49661 | 23404 ft | 427 kts | 32° |
| 2026-05-08 03:10 | 39.39152 | -74.47998 | 23053 ft | 428 kts | 32° |
| 2026-05-08 03:10 | 39.42176 | -74.44702 | 22402 ft | 426 kts | 33° |
| 2026-05-08 03:11 | 39.44438 | -74.42233 | 21927 ft | 425 kts | 33° |
| 2026-05-08 03:11 | 39.46674 | -74.39792 | 21431 ft | 424 kts | 33° |
| 2026-05-08 03:11 | 39.48919 | -74.37341 | 20942 ft | 421 kts | 33° |
| 2026-05-08 03:11 | 39.51144 | -74.34906 | 20460 ft | 416 kts | 34° |
| 2026-05-08 03:12 | 39.53332 | -74.32507 | 19989 ft | 409 kts | 35° |
| 2026-05-08 03:12 | 39.54768 | -74.30927 | 19675 ft | 405 kts | 35° |
| 2026-05-08 03:12 | 39.57564 | -74.27853 | 19081 ft | 395 kts | 34° |
| 2026-05-08 03:12 | 39.59643 | -74.25567 | 18930 ft | 379 kts | 34° |
| 2026-05-08 03:13 | 39.61613 | -74.23398 | 18815 ft | 375 kts | 35° |
| 2026-05-08 03:13 | 39.63616 | -74.21204 | 18566 ft | 380 kts | 35° |
| 2026-05-08 03:13 | 39.65652 | -74.18977 | 18323 ft | 381 kts | 35° |
| 2026-05-08 03:13 | 39.67651 | -74.16779 | 18051 ft | 375 kts | 35° |
| 2026-05-08 03:14 | 39.69630 | -74.14597 | 17639 ft | 375 kts | 36° |
| 2026-05-08 03:14 | 39.71603 | -74.12423 | 17203 ft | 374 kts | 35° |
| 2026-05-08 03:14 | 39.72919 | -74.10971 | 16891 ft | 374 kts | 36° |
| 2026-05-08 03:14 | 39.75550 | -74.08065 | 16304 ft | 373 kts | 36° |
| 2026-05-08 03:15 | 39.77547 | -74.05857 | 15896 ft | 371 kts | 36° |
| 2026-05-08 03:15 | 39.79490 | -74.03706 | 15535 ft | 365 kts | 36° |
| 2026-05-08 03:15 | 39.80765 | -74.02293 | 15248 ft | 363 kts | 36° |
| 2026-05-08 03:15 | 39.83282 | -73.99557 | 14696 ft | 358 kts | 33° |
| 2026-05-08 03:16 | 39.85148 | -73.97823 | 14299 ft | 351 kts | 27° |
| 2026-05-08 03:16 | 39.87221 | -73.96220 | 13904 ft | 345 kts | 23° |
| 2026-05-08 03:16 | 39.88629 | -73.95228 | 13611 ft | 342 kts | 21° |
| 2026-05-08 03:16 | 39.91407 | -73.93340 | 13070 ft | 337 kts | 21° |
| 2026-05-08 03:17 | 39.93485 | -73.91920 | 12659 ft | 332 kts | 21° |
| 2026-05-08 03:17 | 39.95473 | -73.90537 | 12237 ft | 325 kts | 22° |
| 2026-05-08 03:17 | 39.97457 | -73.89138 | 11826 ft | 317 kts | 22° |
| 2026-05-08 03:17 | 39.99355 | -73.87788 | 11465 ft | 307 kts | 22° |
| 2026-05-08 03:18 | 40.01209 | -73.86453 | 11074 ft | 300 kts | 24° |
| 2026-05-08 03:18 | 40.02365 | -73.85480 | 11025 ft | 295 kts | 28° |
| 2026-05-08 03:18 | 40.04563 | -73.83364 | 10984 ft | 302 kts | 31° |
| 2026-05-08 03:18 | 40.06237 | -73.81673 | 10981 ft | 305 kts | 32° |
| 2026-05-08 03:19 | 40.07370 | -73.80526 | 10984 ft | 305 kts | 31° |
| 2026-05-08 03:19 | 40.09579 | -73.78303 | 10983 ft | 305 kts | 31° |
| 2026-05-08 03:19 | 40.10725 | -73.77159 | 10987 ft | 306 kts | 31° |
| 2026-05-08 03:19 | 40.12966 | -73.74920 | 10980 ft | 306 kts | 31° |
| 2026-05-08 03:20 | 40.14648 | -73.73235 | 10983 ft | 305 kts | 32° |
| 2026-05-08 03:20 | 40.16338 | -73.71536 | 10986 ft | 306 kts | 31° |
| 2026-05-08 03:20 | 40.17464 | -73.70405 | 10987 ft | 306 kts | 31° |
| 2026-05-08 03:20 | 40.19691 | -73.68169 | 10983 ft | 305 kts | 31° |
| 2026-05-08 03:21 | 40.21403 | -73.66459 | 10986 ft | 306 kts | 31° |
| 2026-05-08 03:21 | 40.22512 | -73.65348 | 10985 ft | 306 kts | 31° |
| 2026-05-08 03:21 | 40.24199 | -73.63652 | 10980 ft | 305 kts | 31° |
| 2026-05-08 03:21 | 40.26444 | -73.61392 | 10986 ft | 305 kts | 31° |
| 2026-05-08 03:22 | 40.28126 | -73.59694 | 10989 ft | 305 kts | 31° |
| 2026-05-08 03:22 | 40.29791 | -73.58017 | 10987 ft | 304 kts | 31° |
| 2026-05-08 03:22 | 40.30923 | -73.56878 | 10983 ft | 304 kts | 31° |
| 2026-05-08 03:22 | 40.33280 | -73.54899 | 10982 ft | 297 kts | 16° |
| 2026-05-08 03:23 | 40.35218 | -73.54147 | 10992 ft | 289 kts | 3° |
| 2026-05-08 03:23 | 40.37189 | -73.53731 | 10982 ft | 288 kts | 0° |
| 2026-05-08 03:23 | 40.39175 | -73.53355 | 10984 ft | 288 kts | 1° |
| 2026-05-08 03:23 | 40.41154 | -73.52943 | 10990 ft | 289 kts | 2° |
| 2026-05-08 03:24 | 40.43129 | -73.52496 | 10988 ft | 289 kts | 3° |
| 2026-05-08 03:24 | 40.45138 | -73.52016 | 10983 ft | 289 kts | 3° |
| 2026-05-08 03:24 | 40.47109 | -73.51536 | 10985 ft | 290 kts | 4° |
| 2026-05-08 03:24 | 40.49086 | -73.51049 | 10970 ft | 288 kts | 3° |
| 2026-05-08 03:25 | 40.50403 | -73.50726 | 10822 ft | 293 kts | 3° |
| 2026-05-08 03:25 | 40.53095 | -73.50071 | 10182 ft | 298 kts | 4° |
| 2026-05-08 03:25 | 40.55129 | -73.49571 | 9844 ft | 293 kts | 5° |
| 2026-05-08 03:25 | 40.57093 | -73.49081 | 9566 ft | 288 kts | 5° |
| 2026-05-08 03:26 | 40.59055 | -73.48595 | 9199 ft | 286 kts | 5° |
| 2026-05-08 03:26 | 40.60349 | -73.48278 | 8940 ft | 283 kts | 5° |
| 2026-05-08 03:26 | 40.62875 | -73.47660 | 8503 ft | 271 kts | 5° |
| 2026-05-08 03:26 | 40.64709 | -73.47211 | 8166 ft | 267 kts | 6° |
| 2026-05-08 03:27 | 40.66549 | -73.46761 | 7830 ft | 267 kts | 6° |
| 2026-05-08 03:27 | 40.68354 | -73.46259 | 7491 ft | 270 kts | 12° |
| 2026-05-08 03:27 | 40.70122 | -73.45390 | 7169 ft | 271 kts | 21° |
| 2026-05-08 03:27 | 40.71815 | -73.44292 | 6844 ft | 271 kts | 24° |
| 2026-05-08 03:28 | 40.73481 | -73.43192 | 6515 ft | 262 kts | 21° |
| 2026-05-08 03:28 | 40.75188 | -73.42604 | 6159 ft | 249 kts | 357° |
| 2026-05-08 03:28 | 40.76785 | -73.43136 | 5975 ft | 229 kts | 330° |
| 2026-05-08 03:28 | 40.77935 | -73.44198 | 5746 ft | 220 kts | 316° |
| 2026-05-08 03:29 | 40.78956 | -73.45641 | 5517 ft | 210 kts | 304° |
| 2026-05-08 03:29 | 40.79716 | -73.47222 | 5317 ft | 201 kts | 299° |
| 2026-05-08 03:29 | 40.80183 | -73.48289 | 5185 ft | 196 kts | 299° |
| 2026-05-08 03:29 | 40.80861 | -73.49810 | 4999 ft | 188 kts | 300° |
| 2026-05-08 03:30 | 40.82227 | -73.53186 | 4594 ft | 172 kts | 281° |
| 2026-05-08 03:30 | 40.81677 | -73.56239 | 4274 ft | 179 kts | 251° |
| 2026-05-08 03:31 | 40.80861 | -73.59303 | 3916 ft | 176 kts | 254° |
| 2026-05-08 03:31 | 40.80074 | -73.62387 | 3597 ft | 177 kts | 249° |
| 2026-05-08 03:32 | 40.79635 | -73.63284 | 3566 ft | 179 kts | 228° |
| 2026-05-08 03:32 | 40.78254 | -73.64649 | 3261 ft | 193 kts | 217° |
| 2026-05-08 03:32 | 40.77111 | -73.65623 | 2964 ft | 192 kts | 214° |
| 2026-05-08 03:32 | 40.75986 | -73.66528 | 2675 ft | 190 kts | 213° |
| 2026-05-08 03:33 | 40.74864 | -73.67410 | 2428 ft | 182 kts | 213° |
| 2026-05-08 03:33 | 40.73820 | -73.68230 | 2208 ft | 167 kts | 213° |
| 2026-05-08 03:33 | 40.72826 | -73.69010 | 1924 ft | 165 kts | 213° |
| 2026-05-08 03:33 | 40.71864 | -73.69763 | 1725 ft | 161 kts | 213° |
| 2026-05-08 03:34 | 40.70891 | -73.70523 | 1505 ft | 161 kts | 212° |
| 2026-05-08 03:34 | 40.69944 | -73.71263 | 1296 ft | 151 kts | 212° |
| 2026-05-08 03:34 | 40.69039 | -73.71969 | 1084 ft | 152 kts | 212° |
| 2026-05-08 03:34 | 40.68132 | -73.72678 | 870 ft | 151 kts | 212° |
| 2026-05-08 03:35 | 40.67239 | -73.73374 | 676 ft | 149 kts | 211° |
| 2026-05-08 03:35 | 40.66346 | -73.74065 | 477 ft | 148 kts | 210° |
| 2026-05-08 03:35 | 40.65465 | -73.74745 | 263 ft | 147 kts | 211° |
| 2026-05-08 03:35 | 40.64587 | -73.75437 | 61 ft | 146 kts | 210° |
| 2026-05-08 03:36 | 40.63825 | -73.76034 | 16 ft | 95 kts | 210° |
| 2026-05-08 03:36 | 40.63422 | -73.76347 | 16 ft | 48 kts | 210° |
| 2026-05-08 03:36 | 40.63276 | -73.76547 | 14 ft | 22 kts | 237° |
| 2026-05-08 03:36 | 40.63234 | -73.76668 | 14 ft | 13 kts | 266° |
| 2026-05-08 03:37 | 40.63267 | -73.76780 | 12 ft | 14 kts | 301° |
| 2026-05-08 03:37 | 40.63335 | -73.76929 | 12 ft | 21 kts | 300° |
| 2026-05-08 03:37 | 40.63410 | -73.77093 | 14 ft | 20 kts | 300° |
| 2026-05-08 03:37 | 40.63478 | -73.77245 | 15 ft | 18 kts | 301° |
| 2026-05-08 03:38 | 40.63541 | -73.77382 | 15 ft | 17 kts | 300° |
| 2026-05-08 03:38 | 40.63599 | -73.77512 | 16 ft | 16 kts | 301° |
| 2026-05-08 03:38 | 40.63641 | -73.77595 | 16 ft | 8 kts | 305° |
| 2026-05-08 03:38 | 40.63673 | -73.77659 | 16 ft | 7 kts | 289° |
| 2026-05-08 03:39 | 40.63666 | -73.77698 | 16 ft | 6 kts | 227° |
| 2026-05-08 03:39 | 40.63623 | -73.77737 | 16 ft | 10 kts | 211° |
| 2026-05-08 03:39 | 40.63500 | -73.77834 | 12 ft | 20 kts | 210° |